KLNR/LNR METAR and TAF weather

Enter ICAO airport designator
Station Type Date Time Source
KLNR METAR 2021/01/17 18:56 UTC NOAA

KLNR 171856Z AUTO 33003KT 9SM OVC030 M01/M05 A2972 RMK AO2 SNB41E51 SLP068 P0000 T10061050


Station Type Date Time Source
KLNR Decoded METAR 2021/01/17 18:56 UTC NOAA

LONE ROCK TRI-COUNTY REG, WI, United States (KLNR) 43-13N 090-11W 217M
Jan 17, 2021 - 01:56 PM EST / 2021.01.17 1856 UTC
Wind: from the NNW (330 degrees) at 3 MPH (3 KT):0
Visibility: 9 mile(s):0
Sky conditions: overcast
Precipitation last hour: A trace
Temperature: 30.9 F (-0.6 C)
Dew Point: 23.0 F (-5.0 C)
Relative Humidity: 72%
Pressure (altimeter): 29.72 in. Hg (1006 hPa)
ob: KLNR 171856Z AUTO 33003KT 9SM OVC030 M01/M05 A2972 RMK AO2 SNB41E51 SLP068 P0000 T10061050
cycle: 19

Station Type Date Time Source
KLNR TAF UTC NOAA

Error!

Example: see airport list